createdAt,value
2023-03-06T00:01:09.138Z,29.90
2023-03-06T00:03:37.866Z,30.33
2023-03-06T00:06:05.267Z,29.35
2023-03-06T00:08:32.774Z,31.95
2023-03-06T00:11:00.952Z,28.58
2023-03-06T00:13:30.742Z,30.27
2023-03-06T00:16:01.269Z,28.88
2023-03-06T00:18:28.678Z,20.40
2023-03-06T00:20:55.739Z,26.45
2023-03-06T00:23:24.365Z,26.27
2023-03-06T00:25:51.713Z,28.15
2023-03-06T00:28:19.199Z,25.40
2023-03-06T00:30:47.568Z,27.73
2023-03-06T00:33:15.175Z,35.95
2023-03-06T00:35:42.707Z,32.50
2023-03-06T00:38:12.479Z,41.85
2023-03-06T00:40:40.386Z,51.83
2023-03-06T00:43:08.790Z,66.53
2023-03-06T00:45:37.306Z,16.42
2023-03-06T00:48:05.155Z,12.38
2023-03-06T00:50:32.220Z,12.20
2023-03-06T00:52:59.616Z,13.65
2023-03-06T00:55:26.645Z,10.13
2023-03-06T00:57:54.000Z,12.02
2023-03-06T01:00:21.214Z,11.88
2023-03-06T01:02:48.583Z,11.35
2023-03-06T01:05:15.716Z,12.80
2023-03-06T01:07:43.044Z,12.23
2023-03-06T01:10:11.056Z,9.45
2023-03-06T01:12:38.527Z,10.63
2023-03-06T01:15:07.721Z,12.63
2023-03-06T01:20:02.394Z,10.60
2023-03-06T01:22:30.139Z,12.93
2023-03-06T01:24:57.088Z,11.45
2023-03-06T01:27:24.429Z,12.60
2023-03-06T01:29:51.417Z,11.98
2023-03-06T01:32:18.787Z,16.25
2023-03-06T01:34:45.900Z,11.30
2023-03-06T01:37:13.402Z,10.95
2023-03-06T01:39:40.499Z,11.38
2023-03-06T01:42:08.550Z,14.48
2023-03-06T01:44:35.727Z,12.68
2023-03-06T01:47:03.075Z,9.07
2023-03-06T01:49:39.630Z,10.27
2023-03-06T01:52:14.992Z,8.95
2023-03-06T01:54:49.814Z,14.13
2023-03-06T01:57:30.638Z,13.65
2023-03-06T02:00:20.155Z,11.70
2023-03-06T02:03:00.825Z,13.43
2023-03-06T02:05:27.953Z,19.45
2023-03-06T02:07:57.675Z,20.50
2023-03-06T02:10:24.886Z,20.90
2023-03-06T02:12:53.160Z,18.50
2023-03-06T02:15:24.474Z,15.52
2023-03-06T02:17:52.232Z,18.33
2023-03-06T02:20:25.216Z,18.88
2023-03-06T02:23:06.249Z,14.52
2023-03-06T02:25:33.931Z,14.50
2023-03-06T02:28:02.435Z,13.43
2023-03-06T02:30:30.893Z,12.25
2023-03-06T02:32:58.588Z,9.20
2023-03-06T02:35:31.569Z,10.20
2023-03-06T02:38:21.042Z,10.57
2023-03-06T02:40:51.259Z,9.85
2023-03-06T02:45:50.808Z,10.32
2023-03-06T02:48:19.908Z,7.85
2023-03-06T02:50:47.964Z,7.68
2023-03-06T02:53:17.581Z,8.27
2023-03-06T02:55:45.204Z,6.57
2023-03-06T02:58:13.179Z,7.90
2023-03-06T03:00:40.309Z,7.47
2023-03-06T03:03:09.284Z,11.63
2023-03-06T03:05:39.410Z,7.55
2023-03-06T03:08:06.923Z,9.75
2023-03-06T03:10:34.087Z,9.10
2023-03-06T03:13:08.058Z,9.82
2023-03-06T03:15:35.326Z,11.80
2023-03-06T03:18:02.982Z,9.65
2023-03-06T03:20:30.199Z,9.63
2023-03-06T03:22:58.527Z,10.00
2023-03-06T03:25:26.295Z,9.70
2023-03-06T03:27:54.390Z,8.88
2023-03-06T03:30:22.138Z,8.23
2023-03-06T03:32:50.947Z,8.13
2023-03-06T03:35:19.268Z,12.13
2023-03-06T03:37:46.681Z,5.63
2023-03-06T03:40:13.943Z,7.47
2023-03-06T03:42:41.380Z,8.85
2023-03-06T03:45:08.756Z,9.27
2023-03-06T03:47:39.110Z,10.02
2023-03-06T03:50:07.791Z,9.70
2023-03-06T03:52:35.107Z,9.40
2023-03-06T03:55:02.192Z,8.25
2023-03-06T03:57:30.747Z,7.88
2023-03-06T03:59:57.807Z,13.55
2023-03-06T04:02:25.639Z,9.35
2023-03-06T04:04:52.979Z,10.98
2023-03-06T04:07:20.490Z,11.80
2023-03-06T04:09:48.528Z,11.18
2023-03-06T04:12:16.017Z,10.32
2023-03-06T04:14:43.606Z,11.20
2023-03-06T04:17:11.322Z,13.15
2023-03-06T04:19:38.467Z,10.27
2023-03-06T04:22:05.835Z,11.90
2023-03-06T04:24:32.854Z,13.88
2023-03-06T04:27:00.395Z,13.93
2023-03-06T04:29:27.492Z,11.15
2023-03-06T04:31:54.871Z,12.38
2023-03-06T04:34:21.820Z,9.50
2023-03-06T04:36:49.149Z,13.02
2023-03-06T04:39:16.261Z,12.98
2023-03-06T04:41:43.674Z,15.88
2023-03-06T04:44:10.758Z,12.88
2023-03-06T04:46:38.204Z,11.90
2023-03-06T04:49:05.424Z,12.85
2023-03-06T04:51:33.671Z,10.23
2023-03-06T04:56:46.801Z,13.93
2023-03-06T04:59:13.830Z,10.65
2023-03-06T05:01:41.532Z,12.40
2023-03-06T05:04:08.717Z,10.15
2023-03-06T05:06:36.264Z,11.60
2023-03-06T05:09:03.303Z,14.43
2023-03-06T05:11:30.693Z,13.20
2023-03-06T05:13:57.931Z,12.05
2023-03-06T05:16:25.484Z,12.40
2023-03-06T05:18:53.058Z,19.42
2023-03-06T05:21:24.318Z,13.05
2023-03-06T05:23:51.967Z,14.38
2023-03-06T05:26:21.402Z,18.05
2023-03-06T05:31:31.244Z,16.88
2023-03-06T05:33:59.233Z,12.85
2023-03-06T05:36:27.719Z,13.65
2023-03-06T05:38:54.778Z,14.93
2023-03-06T05:41:22.295Z,22.23
2023-03-06T05:43:50.117Z,18.92
2023-03-06T05:46:21.065Z,16.33
2023-03-06T05:48:48.374Z,21.42
2023-03-06T05:51:15.930Z,12.10
2023-03-06T05:53:43.087Z,13.73
2023-03-06T05:59:19.076Z,11.98
2023-03-06T06:01:46.470Z,14.05
2023-03-06T06:04:15.762Z,15.73
2023-03-06T06:06:43.172Z,15.52
2023-03-06T06:09:11.748Z,11.50
2023-03-06T06:11:41.099Z,19.75
2023-03-06T06:14:08.143Z,13.30
2023-03-06T06:16:35.541Z,13.60
2023-03-06T06:19:02.663Z,14.65
2023-03-06T06:21:30.188Z,16.45
2023-03-06T06:23:57.151Z,11.38
2023-03-06T06:26:26.835Z,14.15
2023-03-06T06:28:53.881Z,16.08
2023-03-06T06:31:21.534Z,15.50
2023-03-06T06:33:49.643Z,12.13
2023-03-06T06:36:20.086Z,16.00
2023-03-06T06:38:47.227Z,13.70
2023-03-06T06:41:50.740Z,13.52
2023-03-06T06:44:08.546Z,12.27
2023-03-06T06:47:20.832Z,13.13
2023-03-06T06:49:24.364Z,15.27
2023-03-06T06:51:51.660Z,11.68
2023-03-06T06:54:20.024Z,15.45
2023-03-06T06:56:47.434Z,15.57
2023-03-06T06:59:17.086Z,16.13
2023-03-06T07:01:45.141Z,14.50
2023-03-06T07:04:15.492Z,8.63
2023-03-06T07:06:43.009Z,14.55
2023-03-06T07:09:10.315Z,17.25
2023-03-06T07:11:38.822Z,16.70
2023-03-06T07:14:06.073Z,10.73
2023-03-06T07:16:33.553Z,14.23
2023-03-06T07:19:09.482Z,12.88
2023-03-06T07:21:36.904Z,11.93
2023-03-06T07:24:04.884Z,9.90
2023-03-06T07:26:34.670Z,11.60
2023-03-06T07:29:03.668Z,13.45
2023-03-06T07:31:31.398Z,13.95
2023-03-06T07:33:58.532Z,15.05
2023-03-06T07:36:26.034Z,13.95
2023-03-06T07:38:53.049Z,13.05
2023-03-06T07:41:22.465Z,13.73
2023-03-06T07:43:50.269Z,15.90
2023-03-06T07:46:18.379Z,13.60
2023-03-06T07:48:45.516Z,11.77
2023-03-06T07:51:18.425Z,14.57
2023-03-06T07:53:46.221Z,13.00
2023-03-06T07:56:14.231Z,19.02
2023-03-06T07:58:43.574Z,12.90
2023-03-06T08:01:14.216Z,17.02
2023-03-06T08:03:41.949Z,12.07
2023-03-06T08:06:18.578Z,13.35
2023-03-06T08:08:47.081Z,17.80
2023-03-06T08:11:16.660Z,18.00
2023-03-06T08:13:44.632Z,15.48
2023-03-06T08:16:12.062Z,16.63
2023-03-06T08:18:44.962Z,12.77
2023-03-06T08:21:15.936Z,13.35
2023-03-06T08:23:43.440Z,15.57
2023-03-06T08:26:13.537Z,17.65
2023-03-06T08:28:40.826Z,12.85
2023-03-06T08:31:13.169Z,17.23
2023-03-06T08:33:41.118Z,16.52
2023-03-06T08:36:08.774Z,13.15
2023-03-06T08:38:35.825Z,16.13
2023-03-06T08:41:03.370Z,19.63
2023-03-06T08:43:30.373Z,14.70
2023-03-06T08:45:58.907Z,12.73
2023-03-06T08:48:26.493Z,12.00
2023-03-06T08:50:54.102Z,17.77
2023-03-06T08:53:40.442Z,21.00
2023-03-06T08:56:16.894Z,16.65
2023-03-06T08:58:43.968Z,19.80
2023-03-06T09:01:23.804Z,14.73
2023-03-06T09:03:54.626Z,17.45
2023-03-06T09:06:26.389Z,15.05
2023-03-06T09:08:54.887Z,21.85
2023-03-06T09:11:24.780Z,17.80
2023-03-06T09:13:52.706Z,7.65
2023-03-06T09:16:20.499Z,14.93
2023-03-06T09:18:50.575Z,16.60
2023-03-06T09:21:17.998Z,17.95
2023-03-06T09:23:45.292Z,13.45
2023-03-06T09:26:13.012Z,13.43
2023-03-06T09:28:41.410Z,19.70
2023-03-06T09:31:17.810Z,15.70
2023-03-06T09:33:47.872Z,16.00
2023-03-06T09:36:21.051Z,15.98
2023-03-06T09:38:50.124Z,17.85
2023-03-06T09:41:34.309Z,13.25
2023-03-06T09:44:05.127Z,16.33
2023-03-06T09:47:00.811Z,17.83
2023-03-06T09:49:46.037Z,14.90
2023-03-06T09:52:46.509Z,18.75
2023-03-06T09:55:27.333Z,17.17
2023-03-06T09:58:14.520Z,17.15
2023-03-06T10:00:52.039Z,24.73
2023-03-06T10:03:27.598Z,25.30
2023-03-06T10:06:07.636Z,17.10
2023-03-06T10:08:54.566Z,19.70
2023-03-06T10:12:04.016Z,19.73
2023-03-06T10:14:45.044Z,20.20
2023-03-06T10:17:26.349Z,16.08
2023-03-06T10:19:54.996Z,17.70
2023-03-06T10:22:30.869Z,19.00
2023-03-06T10:25:13.470Z,12.20
2023-03-06T10:27:49.475Z,12.80
2023-03-06T10:30:41.288Z,13.70
2023-03-06T10:33:34.565Z,13.63
2023-03-06T10:36:02.038Z,17.65
2023-03-06T10:38:31.845Z,15.70
2023-03-06T10:41:11.867Z,18.13
2023-03-06T10:44:03.490Z,32.00
2023-03-06T10:46:34.558Z,16.08
2023-03-06T10:49:06.361Z,19.42
2023-03-06T10:51:36.667Z,16.88
2023-03-06T10:54:19.651Z,15.75
2023-03-06T10:56:47.612Z,12.07
2023-03-06T10:59:17.859Z,17.35
2023-03-06T11:01:50.830Z,12.85
2023-03-06T11:04:34.950Z,15.40
2023-03-06T11:07:24.060Z,15.82
2023-03-06T11:09:58.206Z,15.68
2023-03-06T11:12:36.048Z,17.50
2023-03-06T11:15:09.381Z,17.63
2023-03-06T11:17:49.279Z,18.63
2023-03-06T11:20:51.868Z,13.45
2023-03-06T11:23:23.222Z,14.35
2023-03-06T11:26:25.816Z,14.98
2023-03-06T11:29:20.933Z,17.27
2023-03-06T11:32:05.883Z,13.35
2023-03-06T11:34:53.924Z,17.65
2023-03-06T11:37:33.002Z,16.20
2023-03-06T11:40:15.289Z,17.10
2023-03-06T11:43:14.095Z,16.02
2023-03-06T11:45:54.382Z,13.77
2023-03-06T11:48:26.012Z,16.45
2023-03-06T11:53:41.106Z,13.82
2023-03-06T11:56:51.994Z,15.15
2023-03-06T11:59:18.956Z,17.35
2023-03-06T12:02:20.135Z,15.00
2023-03-06T12:05:08.980Z,13.68
2023-03-06T12:08:02.052Z,21.35
2023-03-06T12:11:10.461Z,16.67
2023-03-06T12:14:00.206Z,12.13
2023-03-06T12:16:39.506Z,16.20
2023-03-06T12:19:38.241Z,11.40
2023-03-06T12:22:21.094Z,9.95
2023-03-06T12:25:34.244Z,9.15
2023-03-06T12:28:41.150Z,11.90
2023-03-06T12:31:43.592Z,10.68
2023-03-06T12:34:33.697Z,9.10
2023-03-06T12:37:02.320Z,10.50
2023-03-06T12:39:31.094Z,11.45
2023-03-06T12:42:32.770Z,9.63
2023-03-06T12:45:20.763Z,10.45
2023-03-06T12:47:53.762Z,8.88
2023-03-06T12:50:44.767Z,16.80
2023-03-06T12:53:32.396Z,16.65
2023-03-06T12:56:02.136Z,19.55
2023-03-06T12:58:46.419Z,11.63
2023-03-06T13:01:47.354Z,10.65
2023-03-06T13:04:49.006Z,10.27
2023-03-06T13:07:40.441Z,14.43
2023-03-06T13:10:07.899Z,8.77
2023-03-06T13:12:44.244Z,10.13
2023-03-06T13:15:20.801Z,9.32
2023-03-06T13:17:52.575Z,10.73
2023-03-06T13:20:34.920Z,8.38
2023-03-06T13:23:31.469Z,9.90
2023-03-06T13:26:30.262Z,10.70
2023-03-06T13:28:58.433Z,11.75
2023-03-06T13:31:36.599Z,13.20
2023-03-06T13:34:32.495Z,10.15
2023-03-06T13:37:25.400Z,11.25
2023-03-06T13:39:55.590Z,8.95
2023-03-06T13:42:37.375Z,11.27
2023-03-06T13:45:30.035Z,8.27
2023-03-06T13:48:41.243Z,9.85
2023-03-06T13:50:50.018Z,10.38
2023-03-06T13:53:36.655Z,11.13
2023-03-06T13:56:42.430Z,11.38
2023-03-06T13:59:35.290Z,10.45
2023-03-06T14:02:47.845Z,11.38
2023-03-06T14:08:10.207Z,14.60
2023-03-06T14:10:40.228Z,13.27
2023-03-06T14:13:19.311Z,9.57
2023-03-06T14:15:52.652Z,12.80
2023-03-06T14:18:21.505Z,11.95
2023-03-06T14:20:54.823Z,11.00
2023-03-06T14:23:21.766Z,17.30
2023-03-06T14:26:18.411Z,11.75
2023-03-06T14:29:19.274Z,12.60
2023-03-06T14:34:24.518Z,12.90
2023-03-06T14:36:56.009Z,15.90
2023-03-06T14:39:31.592Z,14.70
2023-03-06T14:42:30.585Z,12.10
2023-03-06T14:45:10.772Z,12.13
2023-03-06T14:47:38.508Z,15.93
2023-03-06T14:50:19.464Z,14.77
2023-03-06T14:52:52.456Z,13.48
2023-03-06T14:55:22.025Z,11.25
2023-03-06T14:58:00.803Z,14.55
2023-03-06T15:00:36.100Z,12.55
2023-03-06T15:03:16.596Z,11.52
2023-03-06T15:05:47.071Z,10.80
2023-03-06T15:08:21.949Z,13.00
2023-03-06T15:11:03.932Z,14.73
2023-03-06T15:13:33.358Z,16.13
2023-03-06T15:16:04.496Z,18.08
2023-03-06T15:18:39.084Z,12.57
2023-03-06T15:21:20.795Z,13.75
2023-03-06T15:26:40.355Z,18.58
2023-03-06T15:29:11.087Z,11.30
2023-03-06T15:31:43.824Z,15.60
2023-03-06T15:34:11.240Z,20.85
2023-03-06T15:36:42.681Z,15.35
2023-03-06T15:39:31.419Z,14.68
2023-03-06T15:42:27.986Z,15.88
2023-03-06T15:47:47.989Z,14.95
2023-03-06T15:50:21.716Z,13.77
2023-03-06T15:52:50.033Z,17.80
2023-03-06T15:55:22.598Z,15.90
2023-03-06T15:58:09.826Z,18.58
2023-03-06T16:00:38.634Z,20.38
2023-03-06T16:03:05.788Z,19.00
2023-03-06T16:05:33.749Z,13.27
2023-03-06T16:08:01.021Z,15.25
2023-03-06T16:10:39.494Z,15.98
2023-03-06T16:13:14.275Z,16.00
2023-03-06T16:15:48.016Z,10.90
2023-03-06T16:20:58.987Z,17.63
2023-03-06T16:23:29.516Z,17.08
2023-03-06T16:26:03.061Z,16.73
2023-03-06T16:28:32.308Z,21.30
2023-03-06T16:30:59.870Z,18.10
2023-03-06T16:33:28.934Z,23.23
2023-03-06T16:35:57.571Z,23.05
2023-03-06T16:41:10.658Z,29.15
2023-03-06T16:43:39.175Z,19.45
2023-03-06T16:46:14.678Z,29.10
2023-03-06T16:48:41.719Z,30.92
2023-03-06T16:51:14.055Z,30.33
2023-03-06T16:53:41.199Z,32.67
2023-03-06T16:56:18.850Z,26.63
2023-03-06T16:58:50.134Z,38.50
2023-03-06T17:01:20.268Z,30.63
2023-03-06T17:03:47.541Z,29.95
2023-03-06T17:06:21.197Z,30.38
2023-03-06T17:08:50.106Z,32.55
2023-03-06T17:11:32.154Z,32.05
2023-03-06T17:14:08.513Z,38.13
2023-03-06T17:20:13.756Z,29.30
2023-03-06T17:22:53.122Z,30.92
2023-03-06T17:25:24.720Z,37.63
2023-03-06T17:38:06.380Z,43.20
2023-03-06T17:40:39.886Z,41.00
2023-03-06T17:43:06.914Z,42.38
2023-03-06T17:45:43.685Z,40.13
2023-03-06T17:48:13.303Z,34.42
2023-03-06T17:50:41.356Z,42.10
2023-03-06T17:53:08.755Z,43.10
2023-03-06T17:55:41.066Z,34.63
2023-03-06T17:58:10.245Z,41.55
2023-03-06T18:00:40.380Z,33.65
2023-03-06T18:03:09.177Z,24.75
2023-03-06T18:05:37.093Z,32.38
2023-03-06T18:08:09.777Z,41.58
2023-03-06T18:10:41.243Z,45.00
2023-03-06T18:13:09.863Z,39.00
2023-03-06T18:15:41.511Z,28.50
2023-03-06T18:18:09.144Z,39.15
2023-03-06T18:20:45.837Z,26.83
2023-03-06T18:23:14.310Z,36.53
2023-03-06T18:25:42.055Z,30.85
2023-03-06T18:28:09.054Z,28.77
2023-03-06T18:30:39.461Z,32.05
2023-03-06T18:33:07.396Z,30.77
2023-03-06T18:35:37.696Z,41.90
2023-03-06T18:38:07.429Z,29.88
2023-03-06T18:40:34.937Z,35.90
2023-03-06T18:43:02.088Z,31.50
2023-03-06T18:45:30.892Z,36.90
2023-03-06T18:47:58.112Z,40.33
2023-03-06T18:50:25.807Z,33.65
2023-03-06T18:52:53.096Z,41.20
2023-03-06T18:55:21.920Z,37.97
2023-03-06T18:57:49.038Z,40.20
2023-03-06T19:00:17.376Z,30.38
2023-03-06T19:02:44.790Z,36.58
2023-03-06T19:05:20.812Z,38.65
2023-03-06T19:07:50.890Z,34.97
2023-03-06T19:10:18.598Z,44.33
2023-03-06T19:12:45.807Z,50.65
2023-03-06T19:15:13.446Z,32.78
2023-03-06T19:17:41.299Z,53.53
2023-03-06T19:20:09.623Z,41.60
2023-03-06T19:22:40.359Z,48.03
2023-03-06T19:25:08.243Z,47.13
2023-03-06T19:27:38.029Z,44.90
2023-03-06T19:30:16.555Z,44.50
2023-03-06T19:32:54.090Z,48.30
2023-03-06T19:35:21.506Z,53.92
2023-03-06T19:37:48.660Z,57.33
2023-03-06T19:40:16.654Z,49.13
2023-03-06T19:42:44.005Z,47.65
2023-03-06T19:45:12.781Z,52.92
2023-03-06T19:47:39.869Z,51.30
2023-03-06T19:50:07.948Z,51.60
2023-03-06T19:52:37.127Z,47.38
2023-03-06T19:55:05.984Z,52.20
2023-03-06T19:57:33.025Z,44.50
2023-03-06T20:00:04.804Z,53.72
2023-03-06T20:02:32.766Z,56.22
2023-03-06T20:05:00.332Z,57.50
2023-03-06T20:07:27.391Z,60.92
2023-03-06T20:09:57.766Z,71.35
2023-03-06T20:12:24.810Z,74.07
2023-03-06T20:14:52.350Z,72.30
2023-03-06T20:17:19.510Z,72.03
2023-03-06T20:19:47.136Z,82.75
2023-03-06T20:22:14.166Z,72.60
2023-03-06T20:24:41.646Z,57.47
2023-03-06T20:27:09.391Z,42.05
2023-03-06T20:29:37.167Z,46.03
2023-03-06T20:32:04.350Z,51.30
2023-03-06T20:34:32.122Z,47.95
2023-03-06T20:36:59.241Z,41.80
2023-03-06T20:39:26.777Z,52.88
2023-03-06T20:41:53.955Z,31.92
2023-03-06T20:44:32.667Z,43.47
2023-03-06T20:46:59.738Z,41.28
2023-03-06T20:49:28.533Z,34.67
2023-03-06T20:51:56.771Z,38.10
2023-03-06T20:54:27.503Z,40.88
2023-03-06T20:56:56.000Z,47.03
2023-03-06T20:59:24.012Z,37.60
2023-03-06T21:01:53.320Z,40.20
2023-03-06T21:04:42.457Z,47.53
2023-03-06T21:07:14.626Z,37.97
2023-03-06T21:09:43.276Z,42.75
2023-03-06T21:12:14.505Z,47.80
2023-03-06T21:14:42.773Z,43.25
2023-03-06T21:17:13.809Z,51.63
2023-03-06T21:19:41.669Z,44.67
2023-03-06T21:22:12.427Z,43.90
2023-03-06T21:24:42.458Z,46.97
2023-03-06T21:27:18.863Z,43.20
2023-03-06T21:29:46.566Z,44.20
2023-03-06T21:32:13.672Z,47.53
2023-03-06T21:34:41.328Z,51.58
2023-03-06T21:37:09.381Z,48.15
2023-03-06T21:39:36.778Z,43.20
2023-03-06T21:42:03.778Z,48.45
2023-03-06T21:44:31.136Z,47.03
2023-03-06T21:46:58.093Z,41.75
2023-03-06T21:49:27.271Z,54.63
2023-03-06T21:51:57.712Z,46.20
2023-03-06T21:54:26.968Z,48.10
2023-03-06T21:56:53.918Z,39.55
2023-03-06T21:59:21.425Z,44.00
2023-03-06T22:01:50.070Z,39.47
2023-03-06T22:06:48.847Z,48.38
2023-03-06T22:09:19.612Z,41.70
2023-03-06T22:11:48.061Z,37.90
2023-03-06T22:14:15.527Z,46.53
2023-03-06T22:16:42.685Z,36.75
2023-03-06T22:19:13.098Z,35.65
2023-03-06T22:21:43.185Z,41.97
2023-03-06T22:24:10.509Z,39.08
2023-03-06T22:26:37.907Z,44.03
2023-03-06T22:29:05.242Z,31.67
2023-03-06T22:31:32.256Z,70.15
2023-03-06T22:34:00.861Z,52.00
2023-03-06T22:36:30.496Z,53.72
2023-03-06T22:39:02.105Z,56.00
2023-03-06T22:41:32.074Z,52.65
2023-03-06T22:44:02.291Z,50.50
2023-03-06T22:46:31.668Z,42.85
2023-03-06T22:49:04.540Z,47.10
2023-03-06T22:51:32.042Z,48.92
2023-03-06T22:53:59.620Z,50.35
2023-03-06T22:56:27.563Z,46.38
2023-03-06T22:59:00.705Z,47.42
2023-03-06T23:01:43.868Z,48.65
2023-03-06T23:04:14.266Z,46.30
2023-03-06T23:06:43.224Z,47.85
2023-03-06T23:09:23.127Z,47.80
2023-03-06T23:11:50.467Z,45.20
2023-03-06T23:14:19.213Z,42.90
2023-03-06T23:16:46.397Z,44.05
2023-03-06T23:19:13.984Z,36.40
2023-03-06T23:21:41.041Z,46.47
2023-03-06T23:24:09.559Z,46.35
2023-03-06T23:26:36.613Z,44.58
2023-03-06T23:29:04.423Z,49.15
2023-03-06T23:31:32.572Z,41.15
2023-03-06T23:34:01.700Z,43.60
2023-03-06T23:36:29.789Z,41.78
2023-03-06T23:38:58.237Z,46.40
2023-03-06T23:41:27.354Z,55.22
2023-03-06T23:43:55.443Z,44.67
2023-03-06T23:46:22.581Z,40.65
2023-03-06T23:48:50.692Z,40.47
2023-03-06T23:51:20.597Z,33.55
2023-03-06T23:53:53.122Z,40.88
2023-03-06T23:56:20.426Z,38.50
2023-03-06T23:58:48.357Z,39.45
